Time;durP1;ratioP1;P1;durP2;ratioP2;P2;SDS_P1;SDS_P2;PMS_P1;PMS_P2;Temp;Humidity;BMP_temperature;BMP_pressure;BME280_temperature;BME280_humidity;BME280_pressure;Samples;Min_cycle;Max_cycle;Signal;HPM_P1;HPM_P2
2022/10/14 00:00:54;;;;;;;804.17;95.37;;;;;;;;;;4971266;28;20162;-64
2022/10/14 00:03:20;;;;;;;860.93;96.13;;;;;;;;;;4971351;28;20082;-64
2022/10/14 00:05:47;;;;;;;797.67;94.10;;;;;;;;;;4971135;28;20085;-64
2022/10/14 00:08:13;;;;;;;518.43;70.83;;;;;;;;;;4970585;28;20129;-65
2022/10/14 00:10:39;;;;;;;612.47;84.70;;;;;;;;;;4971441;28;20129;-64
2022/10/14 00:13:06;;;;;;;568.33;75.60;;;;;;;;;;4970776;28;20519;-64
2022/10/14 00:15:36;;;;;;;639.00;83.57;;;;;;;;;;4971129;28;20047;-65
2022/10/14 00:18:02;;;;;;;654.37;83.17;;;;;;;;;;4971624;28;20109;-64
2022/10/14 00:20:28;;;;;;;710.23;81.77;;;;;;;;;;4970756;28;20097;-64
2022/10/14 00:22:54;;;;;;;618.73;74.63;;;;;;;;;;4970694;28;21129;-64
2022/10/14 00:25:20;;;;;;;639.07;77.47;;;;;;;;;;4970980;28;20075;-65
2022/10/14 00:27:46;;;;;;;659.53;79.70;;;;;;;;;;4970900;28;20047;-64
2022/10/14 00:30:12;;;;;;;486.30;59.30;;;;;;;;;;4970711;28;20059;-64
2022/10/14 00:32:39;;;;;;;559.13;64.87;;;;;;;;;;4969689;28;20472;-64
2022/10/14 00:35:05;;;;;;;457.87;60.90;;;;;;;;;;4971007;28;20134;-64
2022/10/14 00:37:32;;;;;;;548.57;67.27;;;;;;;;;;4970515;28;20070;-64
2022/10/14 00:39:58;;;;;;;392.83;50.90;;;;;;;;;;4970393;28;20493;-64
2022/10/14 00:42:24;;;;;;;540.70;71.63;;;;;;;;;;4970115;28;20134;-64
2022/10/14 00:44:50;;;;;;;601.03;73.53;;;;;;;;;;4971027;28;20133;-64
2022/10/14 00:47:16;;;;;;;625.97;75.50;;;;;;;;;;4970343;28;20141;-64
2022/10/14 00:49:43;;;;;;;523.77;64.60;;;;;;;;;;4970508;28;20053;-64
2022/10/14 00:52:17;;;;;;;592.23;68.90;;;;;;;;;;4970971;28;20039;-64
2022/10/14 00:55:09;;;;;;;529.00;68.00;;;;;;;;;;4970392;28;20088;-64
2022/10/14 00:57:35;;;;;;;588.27;68.57;;;;;;;;;;4968685;28;20145;-64
2022/10/14 01:00:05;;;;;;;602.37;68.27;;;;;;;;;;4970518;28;20516;-65
2022/10/14 01:02:31;;;;;;;542.03;59.87;;;;;;;;;;4970320;28;20039;-65
2022/10/14 01:04:57;;;;;;;623.07;70.13;;;;;;;;;;4970535;28;20122;-64
2022/10/14 01:07:44;;;;;;;574.83;64.17;;;;;;;;;;4969844;28;20497;-64
2022/10/14 01:10:10;;;;;;;570.20;61.67;;;;;;;;;;4970043;28;20129;-65
2022/10/14 01:12:39;;;;;;;584.53;59.47;;;;;;;;;;4969997;28;20109;-65
2022/10/14 01:15:16;;;;;;;535.40;57.17;;;;;;;;;;4970441;28;20069;-64
2022/10/14 01:17:45;;;;;;;577.37;61.23;;;;;;;;;;4969081;28;20047;-65
2022/10/14 01:20:11;;;;;;;631.40;64.57;;;;;;;;;;4969702;28;20062;-64
2022/10/14 01:22:46;;;;;;;565.47;59.67;;;;;;;;;;4970726;28;20058;-65
2022/10/14 01:25:30;;;;;;;569.37;62.50;;;;;;;;;;4970438;28;20050;-65
2022/10/14 01:28:03;;;;;;;592.20;63.10;;;;;;;;;;4970198;28;20058;-65
2022/10/14 01:30:33;;;;;;;520.73;59.97;;;;;;;;;;4970318;28;20054;-65
2022/10/14 01:32:59;;;;;;;453.60;49.40;;;;;;;;;;4970251;28;20101;-64
2022/10/14 01:35:32;;;;;;;621.83;62.90;;;;;;;;;;4971154;28;20046;-64
2022/10/14 01:38:03;;;;;;;558.60;57.63;;;;;;;;;;4970655;28;20050;-65
2022/10/14 01:40:36;;;;;;;619.23;63.27;;;;;;;;;;4964060;28;20483;-65
2022/10/14 01:43:03;;;;;;;603.05;61.42;;;;;;;;;;4970054;28;20551;-64
2022/10/14 01:45:31;;;;;;;566.30;58.97;;;;;;;;;;4970493;28;20085;-65
2022/10/14 01:47:57;;;;;;;566.13;58.73;;;;;;;;;;4970247;28;20084;-65
2022/10/14 01:50:24;;;;;;;621.30;66.60;;;;;;;;;;4969338;28;20039;-64
2022/10/14 01:53:23;;;;;;;517.47;61.17;;;;;;;;;;4971047;28;20039;-65
2022/10/14 01:55:51;;;;;;;653.60;72.73;;;;;;;;;;4935790;28;20065;-64
2022/10/14 01:58:17;;;;;;;690.30;76.30;;;;;;;;;;4973616;28;20530;-65
2022/10/14 02:00:46;;;;;;;634.37;71.57;;;;;;;;;;4973908;28;20050;-64
2022/10/14 02:03:12;;;;;;;481.23;60.67;;;;;;;;;;4972472;28;20425;-65
2022/10/14 02:05:42;;;;;;;411.43;49.77;;;;;;;;;;4973583;28;20558;-65
2022/10/14 02:08:30;;;;;;;416.23;53.03;;;;;;;;;;4973694;28;20086;-65
2022/10/14 02:10:59;;;;;;;506.73;64.77;;;;;;;;;;4974187;28;20054;-65
2022/10/14 02:13:40;;;;;;;575.17;67.00;;;;;;;;;;4972923;28;20046;-65
2022/10/14 02:16:09;;;;;;;525.67;63.03;;;;;;;;;;4974834;28;20047;-65
2022/10/14 02:18:40;;;;;;;517.70;58.77;;;;;;;;;;4974121;28;20046;-65
2022/10/14 02:21:18;;;;;;;416.30;52.57;;;;;;;;;;4973799;28;20062;-65
2022/10/14 02:23:48;;;;;;;530.93;56.87;;;;;;;;;;4974373;28;20069;-65
2022/10/14 02:26:14;;;;;;;566.63;61.30;;;;;;;;;;4974220;28;20050;-65
2022/10/14 02:28:42;;;;;;;562.97;60.03;;;;;;;;;;4973028;28;20053;-65
2022/10/14 02:31:11;;;;;;;531.37;54.90;;;;;;;;;;4973696;28;20089;-65
2022/10/14 02:33:40;;;;;;;543.23;52.63;;;;;;;;;;4974451;28;20125;-65
2022/10/14 02:36:07;;;;;;;536.27;51.87;;;;;;;;;;4989765;28;20052;-65
2022/10/14 02:38:33;;;;;;;545.20;54.07;;;;;;;;;;4992785;28;20088;-65
2022/10/14 02:41:01;;;;;;;582.40;54.80;;;;;;;;;;4989023;28;20042;-64
2022/10/14 02:43:27;;;;;;;591.73;58.10;;;;;;;;;;4983901;28;20504;-65
2022/10/14 02:45:56;;;;;;;636.93;62.23;;;;;;;;;;4981859;28;20046;-65
2022/10/14 02:48:22;;;;;;;593.93;58.67;;;;;;;;;;4992226;28;20129;-65
2022/10/14 02:50:48;;;;;;;508.03;50.63;;;;;;;;;;4986780;28;20046;-65
2022/10/14 02:53:15;;;;;;;586.23;58.80;;;;;;;;;;4976629;28;20043;-65
2022/10/14 02:55:41;;;;;;;595.70;62.57;;;;;;;;;;4989459;28;20125;-65
2022/10/14 02:58:07;;;;;;;579.23;62.17;;;;;;;;;;4993431;28;20157;-65
2022/10/14 03:00:33;;;;;;;647.93;68.40;;;;;;;;;;4988502;28;20054;-65
2022/10/14 03:02:59;;;;;;;580.27;64.00;;;;;;;;;;4954453;29;20047;-65
2022/10/14 03:05:25;;;;;;;618.27;65.90;;;;;;;;;;4976663;28;20448;-65
2022/10/14 03:07:51;;;;;;;555.77;60.03;;;;;;;;;;4973760;28;20051;-65
2022/10/14 03:10:18;;;;;;;592.87;62.17;;;;;;;;;;4973512;28;20633;-65
2022/10/14 03:12:44;;;;;;;621.50;64.07;;;;;;;;;;4973172;28;20065;-65
2022/10/14 03:15:10;;;;;;;657.20;71.87;;;;;;;;;;4973430;28;20050;-65
2022/10/14 03:17:36;;;;;;;660.07;70.00;;;;;;;;;;4973400;28;20053;-65
2022/10/14 03:20:05;;;;;;;673.93;71.63;;;;;;;;;;4973051;28;20500;-65
2022/10/14 03:22:31;;;;;;;652.60;69.97;;;;;;;;;;4972585;28;20485;-65
2022/10/14 03:24:57;;;;;;;543.87;61.80;;;;;;;;;;4972896;28;20035;-65
2022/10/14 03:27:24;;;;;;;580.37;62.57;;;;;;;;;;4972382;28;20050;-65
2022/10/14 03:29:50;;;;;;;595.30;62.77;;;;;;;;;;4972988;28;20042;-65
2022/10/14 03:32:16;;;;;;;563.93;63.53;;;;;;;;;;4973244;28;20050;-65
2022/10/14 03:34:42;;;;;;;513.07;59.53;;;;;;;;;;4973083;28;20054;-65
2022/10/14 03:37:08;;;;;;;513.20;56.17;;;;;;;;;;4972565;28;20050;-65
2022/10/14 03:39:34;;;;;;;531.03;56.40;;;;;;;;;;4973090;28;20489;-65
2022/10/14 03:42:00;;;;;;;470.63;55.47;;;;;;;;;;4972642;28;20051;-65
2022/10/14 03:44:26;;;;;;;501.30;56.47;;;;;;;;;;4972843;28;20043;-65
2022/10/14 03:46:52;;;;;;;522.80;55.37;;;;;;;;;;4971284;28;20050;-65
2022/10/14 03:49:18;;;;;;;457.80;52.60;;;;;;;;;;4972641;28;20145;-65
2022/10/14 03:51:44;;;;;;;530.87;57.40;;;;;;;;;;4972963;28;20098;-65
2022/10/14 03:54:10;;;;;;;498.60;56.57;;;;;;;;;;4971963;28;20051;-65
2022/10/14 03:56:36;;;;;;;447.80;52.43;;;;;;;;;;4972653;28;20101;-65
2022/10/14 03:59:02;;;;;;;464.30;51.73;;;;;;;;;;4972969;28;20051;-65
2022/10/14 04:01:28;;;;;;;449.57;52.90;;;;;;;;;;4972724;28;20043;-65
2022/10/14 04:03:54;;;;;;;447.50;52.60;;;;;;;;;;4972812;28;20045;-64
2022/10/14 04:06:20;;;;;;;430.67;51.03;;;;;;;;;;4972553;28;20397;-65
2022/10/14 04:08:46;;;;;;;376.93;46.73;;;;;;;;;;4971953;28;20074;-65
2022/10/14 04:11:12;;;;;;;386.33;48.70;;;;;;;;;;4958306;28;20043;-65
2022/10/14 04:13:38;;;;;;;450.53;54.60;;;;;;;;;;4972315;28;20050;-65
2022/10/14 04:16:06;;;;;;;474.90;56.87;;;;;;;;;;4972221;28;20093;-64
2022/10/14 04:18:32;;;;;;;430.23;51.73;;;;;;;;;;4972249;28;20072;-65
2022/10/14 04:21:02;;;;;;;501.83;57.40;;;;;;;;;;4969224;28;20049;-65
2022/10/14 04:23:28;;;;;;;378.80;48.23;;;;;;;;;;4972576;28;20042;-65
2022/10/14 04:25:54;;;;;;;415.87;53.50;;;;;;;;;;4969886;28;20046;-65
2022/10/14 04:28:20;;;;;;;379.60;46.40;;;;;;;;;;4957109;28;20038;-65
2022/10/14 04:30:46;;;;;;;406.93;47.73;;;;;;;;;;4971687;28;20063;-65
2022/10/14 04:33:12;;;;;;;414.73;49.53;;;;;;;;;;4972388;28;20142;-65
2022/10/14 04:35:38;;;;;;;432.47;55.43;;;;;;;;;;4972114;28;20050;-65
2022/10/14 04:38:04;;;;;;;371.87;48.07;;;;;;;;;;4971966;28;20055;-65
2022/10/14 04:40:30;;;;;;;382.60;50.40;;;;;;;;;;4970358;28;20082;-65
2022/10/14 04:42:57;;;;;;;395.07;49.67;;;;;;;;;;4971209;28;20050;-67
2022/10/14 04:45:24;;;;;;;378.43;50.60;;;;;;;;;;4971616;28;20555;-65
2022/10/14 04:47:50;;;;;;;379.73;52.50;;;;;;;;;;4971618;28;20046;-65
2022/10/14 04:50:17;;;;;;;356.30;48.00;;;;;;;;;;4971140;28;20097;-65
2022/10/14 04:52:43;;;;;;;388.00;50.87;;;;;;;;;;4969164;28;20043;-65
2022/10/14 04:55:09;;;;;;;396.93;49.93;;;;;;;;;;4971168;28;20039;-65
2022/10/14 04:57:35;;;;;;;419.37;53.40;;;;;;;;;;4971121;28;20065;-65
2022/10/14 05:00:01;;;;;;;382.37;46.23;;;;;;;;;;4969871;28;20046;-64
2022/10/14 05:02:27;;;;;;;489.17;56.03;;;;;;;;;;4968543;28;20061;-65
2022/10/14 05:04:53;;;;;;;475.63;55.67;;;;;;;;;;4968495;28;20101;-65
2022/10/14 05:07:19;;;;;;;515.17;61.07;;;;;;;;;;4968251;28;20054;-65
2022/10/14 05:09:45;;;;;;;482.27;59.67;;;;;;;;;;4968537;28;20839;-65
2022/10/14 05:12:13;;;;;;;539.37;63.17;;;;;;;;;;4968541;28;20500;-65
2022/10/14 05:14:39;;;;;;;510.03;57.60;;;;;;;;;;4968713;28;20054;-65
2022/10/14 05:17:05;;;;;;;548.60;62.23;;;;;;;;;;4970277;28;20493;-65
2022/10/14 05:19:31;;;;;;;562.53;63.90;;;;;;;;;;4969786;28;20094;-65
2022/10/14 05:21:57;;;;;;;541.20;63.53;;;;;;;;;;4970508;28;20049;-65
2022/10/14 05:24:23;;;;;;;528.57;61.60;;;;;;;;;;4970027;28;20047;-65
2022/10/14 05:26:50;;;;;;;542.23;63.50;;;;;;;;;;4969966;28;20489;-65
2022/10/14 05:29:16;;;;;;;569.00;62.33;;;;;;;;;;4966362;28;20424;-65
2022/10/14 05:31:42;;;;;;;574.07;61.97;;;;;;;;;;4974232;28;20050;-65
2022/10/14 05:34:08;;;;;;;530.87;61.97;;;;;;;;;;4964738;28;20098;-65
2022/10/14 05:36:34;;;;;;;509.47;60.80;;;;;;;;;;4966625;28;20046;-65
2022/10/14 05:39:00;;;;;;;546.20;64.80;;;;;;;;;;4963567;28;20445;-65
2022/10/14 05:41:26;;;;;;;488.37;57.83;;;;;;;;;;4968883;28;20034;-65
2022/10/14 05:43:52;;;;;;;494.90;59.20;;;;;;;;;;4967435;28;20089;-65
2022/10/14 05:46:18;;;;;;;484.30;60.37;;;;;;;;;;4961988;28;20522;-65
2022/10/14 05:48:44;;;;;;;569.97;69.13;;;;;;;;;;4958027;28;20046;-65
2022/10/14 05:51:10;;;;;;;536.10;62.83;;;;;;;;;;4964839;28;20039;-65
2022/10/14 05:53:38;;;;;;;518.43;61.47;;;;;;;;;;4970066;28;20508;-65
2022/10/14 05:56:05;;;;;;;554.90;67.77;;;;;;;;;;4969923;28;20061;-65
2022/10/14 05:58:32;;;;;;;524.50;67.60;;;;;;;;;;4969654;28;20131;-65
2022/10/14 06:01:04;;;;;;;506.70;61.30;;;;;;;;;;4969335;28;20069;-65
2022/10/14 06:03:31;;;;;;;430.63;57.80;;;;;;;;;;4970098;28;20146;-65
2022/10/14 06:05:57;;;;;;;392.10;53.37;;;;;;;;;;4969852;28;20109;-65
2022/10/14 06:08:23;;;;;;;419.30;55.67;;;;;;;;;;4970010;28;20051;-65
2022/10/14 06:10:50;;;;;;;454.20;58.37;;;;;;;;;;4970340;28;20050;-65
2022/10/14 06:13:16;;;;;;;419.60;56.37;;;;;;;;;;4968282;28;20055;-65
2022/10/14 06:15:42;;;;;;;333.43;51.03;;;;;;;;;;4969441;28;20061;-65
2022/10/14 06:18:09;;;;;;;308.43;48.33;;;;;;;;;;4969496;28;20051;-65
2022/10/14 06:20:35;;;;;;;305.27;47.23;;;;;;;;;;4967726;28;20047;-65
2022/10/14 06:23:01;;;;;;;253.53;49.17;;;;;;;;;;4969068;28;20058;-65
2022/10/14 06:25:28;;;;;;;171.60;36.53;;;;;;;;;;4969395;28;20110;-65
2022/10/14 06:27:54;;;;;;;185.37;37.37;;;;;;;;;;4965844;28;20046;-65
2022/10/14 06:30:20;;;;;;;170.33;36.90;;;;;;;;;;4960044;28;20059;-65
2022/10/14 06:32:46;;;;;;;165.73;37.03;;;;;;;;;;4950799;29;20422;-65
2022/10/14 06:35:12;;;;;;;149.87;35.17;;;;;;;;;;4965835;28;20086;-65
2022/10/14 06:37:38;;;;;;;155.17;36.93;;;;;;;;;;4969342;28;20055;-65
2022/10/14 06:40:05;;;;;;;134.37;34.20;;;;;;;;;;4966068;28;20137;-65
2022/10/14 06:42:33;;;;;;;139.97;33.30;;;;;;;;;;4969630;28;20400;-65
2022/10/14 06:44:59;;;;;;;157.10;35.60;;;;;;;;;;4969014;28;20102;-66
2022/10/14 06:47:25;;;;;;;132.73;34.60;;;;;;;;;;4964329;28;20043;-65
2022/10/14 06:49:51;;;;;;;142.27;32.97;;;;;;;;;;4958931;28;20497;-65
2022/10/14 06:52:17;;;;;;;151.73;34.87;;;;;;;;;;4954108;29;20055;-65
2022/10/14 06:54:43;;;;;;;129.27;31.37;;;;;;;;;;4953907;29;20106;-65
2022/10/14 06:57:09;;;;;;;120.73;30.73;;;;;;;;;;4962822;28;20047;-65
2022/10/14 06:59:37;;;;;;;118.83;31.33;;;;;;;;;;4971728;28;20409;-65
2022/10/14 07:02:03;;;;;;;110.30;30.60;;;;;;;;;;4972949;28;20050;-65
2022/10/14 07:04:29;;;;;;;135.17;33.77;;;;;;;;;;4970152;28;20134;-65
2022/10/14 07:06:57;;;;;;;118.17;31.20;;;;;;;;;;4971195;28;20054;-65
2022/10/14 07:09:23;;;;;;;113.43;30.43;;;;;;;;;;4970483;28;20054;-65
2022/10/14 07:11:49;;;;;;;117.20;30.30;;;;;;;;;;4972310;28;20049;-65
2022/10/14 07:14:16;;;;;;;101.23;29.53;;;;;;;;;;4972869;28;20057;-65
2022/10/14 07:16:45;;;;;;;112.80;29.40;;;;;;;;;;4972352;28;20070;-65
2022/10/14 07:19:11;;;;;;;109.67;30.90;;;;;;;;;;4971656;28;20047;-65
2022/10/14 07:21:37;;;;;;;114.50;31.70;;;;;;;;;;4972352;28;20044;-65
2022/10/14 07:24:03;;;;;;;108.90;30.50;;;;;;;;;;4972439;28;20047;-65
2022/10/14 07:26:30;;;;;;;110.20;31.10;;;;;;;;;;4960310;28;20050;-65
2022/10/14 07:28:56;;;;;;;127.37;32.13;;;;;;;;;;4972693;28;20523;-65
2022/10/14 07:31:22;;;;;;;123.97;32.23;;;;;;;;;;4971668;28;20061;-65
2022/10/14 07:33:48;;;;;;;154.57;35.80;;;;;;;;;;4971561;28;20058;-65
2022/10/14 07:36:16;;;;;;;109.67;32.10;;;;;;;;;;4971265;28;20419;-65
2022/10/14 07:38:42;;;;;;;119.60;32.23;;;;;;;;;;4971283;28;20082;-65
2022/10/14 07:41:15;;;;;;;161.60;36.87;;;;;;;;;;4953765;28;20035;-65
2022/10/14 07:43:42;;;;;;;124.50;33.38;;;;;;;;;;4971160;28;20043;-65
2022/10/14 07:46:08;;;;;;;140.73;33.93;;;;;;;;;;4973729;28;20042;-65
2022/10/14 07:48:34;;;;;;;132.27;34.40;;;;;;;;;;4973893;28;20044;-65
2022/10/14 07:51:01;;;;;;;148.17;36.77;;;;;;;;;;4959293;28;20031;-65
2022/10/14 07:53:27;;;;;;;113.27;33.33;;;;;;;;;;4975484;28;20054;-65
2022/10/14 07:55:55;;;;;;;144.50;36.23;;;;;;;;;;4971711;28;20416;-65
2022/10/14 07:58:22;;;;;;;124.83;34.70;;;;;;;;;;4971420;28;20571;-65
2022/10/14 08:00:51;;;;;;;141.23;33.90;;;;;;;;;;4970477;28;20078;-64
2022/10/14 08:03:18;;;;;;;122.23;32.83;;;;;;;;;;4971798;28;20137;-65
2022/10/14 08:05:44;;;;;;;121.87;34.07;;;;;;;;;;4971944;28;20043;-65
2022/10/14 08:08:11;;;;;;;130.83;34.67;;;;;;;;;;4971721;28;20043;-65
2022/10/14 08:10:37;;;;;;;129.83;36.07;;;;;;;;;;4971551;28;20042;-65
2022/10/14 08:13:03;;;;;;;142.53;37.87;;;;;;;;;;4971190;28;20058;-65
2022/10/14 08:15:33;;;;;;;128.77;35.13;;;;;;;;;;4971606;28;20085;-65
2022/10/14 08:17:59;;;;;;;136.13;37.33;;;;;;;;;;4971431;28;20392;-65
2022/10/14 08:20:25;;;;;;;129.33;35.83;;;;;;;;;;4971757;28;20133;-65
2022/10/14 08:22:51;;;;;;;132.70;36.23;;;;;;;;;;4971444;28;20058;-65
2022/10/14 08:25:17;;;;;;;149.63;38.20;;;;;;;;;;4971177;28;20050;-65
2022/10/14 08:27:43;;;;;;;137.37;37.07;;;;;;;;;;4971509;28;20694;-64
2022/10/14 08:30:10;;;;;;;151.03;39.23;;;;;;;;;;4971316;28;20125;-65
2022/10/14 08:32:36;;;;;;;189.17;42.37;;;;;;;;;;4971223;28;20039;-65
2022/10/14 08:35:02;;;;;;;158.53;39.23;;;;;;;;;;4970797;28;20046;-65
2022/10/14 08:37:28;;;;;;;179.37;42.10;;;;;;;;;;4970904;28;20108;-65
2022/10/14 08:39:54;;;;;;;169.87;42.60;;;;;;;;;;4970863;28;20129;-65
2022/10/14 08:42:28;;;;;;;195.23;45.03;;;;;;;;;;4971015;28;20042;-65
2022/10/14 08:45:06;;;;;;;143.63;38.57;;;;;;;;;;4971201;28;20062;-65
2022/10/14 08:47:40;;;;;;;159.60;42.27;;;;;;;;;;4970518;28;20058;-65
2022/10/14 08:50:08;;;;;;;185.87;40.30;;;;;;;;;;4970710;28;20051;-65
2022/10/14 08:52:43;;;;;;;170.30;40.47;;;;;;;;;;4970876;28;20051;-65
2022/10/14 08:55:18;;;;;;;166.17;42.10;;;;;;;;;;4970748;28;20053;-66
2022/10/14 08:57:48;;;;;;;176.60;39.47;;;;;;;;;;4970220;28;20500;-66
2022/10/14 09:00:15;;;;;;;202.37;44.17;;;;;;;;;;4970864;28;20039;-66
2022/10/14 09:02:49;;;;;;;229.30;45.60;;;;;;;;;;4969472;28;20042;-66
2022/10/14 09:05:20;;;;;;;206.13;42.30;;;;;;;;;;4970828;28;20058;-66
2022/10/14 09:07:48;;;;;;;190.90;42.30;;;;;;;;;;4970782;28;20625;-66
2022/10/14 09:10:18;;;;;;;172.50;38.23;;;;;;;;;;4970400;28;20038;-66
2022/10/14 09:12:44;;;;;;;212.63;43.90;;;;;;;;;;4970541;28;20097;-66
2022/10/14 09:15:18;;;;;;;173.17;38.30;;;;;;;;;;4969261;28;20047;-66
2022/10/14 09:18:03;;;;;;;244.67;41.80;;;;;;;;;;4970516;28;20101;-66
2022/10/14 09:20:29;;;;;;;164.40;36.97;;;;;;;;;;4970098;28;20133;-66
2022/10/14 09:22:55;;;;;;;165.20;34.50;;;;;;;;;;4970479;28;20146;-66
2022/10/14 09:25:21;;;;;;;153.43;31.40;;;;;;;;;;4970314;28;20390;-66
2022/10/14 09:27:47;;;;;;;119.00;28.73;;;;;;;;;;4970292;28;20051;-66
2022/10/14 09:30:14;;;;;;;107.53;25.33;;;;;;;;;;4970226;28;20063;-66
2022/10/14 09:32:42;;;;;;;136.33;27.03;;;;;;;;;;4968439;28;20058;-66
2022/10/14 09:35:13;;;;;;;139.80;26.33;;;;;;;;;;4968847;28;20074;-66
2022/10/14 09:37:39;;;;;;;124.20;25.03;;;;;;;;;;4969146;28;20050;-66
2022/10/14 09:40:08;;;;;;;126.43;24.90;;;;;;;;;;4968786;28;20066;-66
2022/10/14 09:42:46;;;;;;;118.27;23.83;;;;;;;;;;4969712;28;20043;-66
2022/10/14 09:45:23;;;;;;;83.40;19.53;;;;;;;;;;4970254;28;20138;-66
2022/10/14 09:47:52;;;;;;;129.87;26.60;;;;;;;;;;4968271;28;20114;-66
2022/10/14 09:50:21;;;;;;;96.03;22.03;;;;;;;;;;4970205;28;20047;-66
2022/10/14 09:53:06;;;;;;;122.17;25.70;;;;;;;;;;4969989;28;20055;-66
2022/10/14 09:55:32;;;;;;;192.37;30.77;;;;;;;;;;4969672;28;20053;-66
2022/10/14 09:58:03;;;;;;;104.33;24.60;;;;;;;;;;4969822;28;20070;-66
2022/10/14 10:00:30;;;;;;;136.13;27.47;;;;;;;;;;4969874;28;20047;-66
2022/10/14 10:02:57;;;;;;;145.73;28.20;;;;;;;;;;4969787;28;20050;-66
2022/10/14 10:05:23;;;;;;;133.53;29.13;;;;;;;;;;4969428;28;20047;-66
2022/10/14 10:08:03;;;;;;;119.77;27.57;;;;;;;;;;4970215;28;20642;-65
2022/10/14 10:10:29;;;;;;;178.33;33.93;;;;;;;;;;4969038;28;20062;-66
2022/10/14 10:12:56;;;;;;;111.73;26.47;;;;;;;;;;4968468;28;20059;-65
2022/10/14 10:15:22;;;;;;;154.27;31.53;;;;;;;;;;4969785;28;20045;-66
2022/10/14 10:17:49;;;;;;;153.50;30.83;;;;;;;;;;4971947;28;20057;-66
2022/10/14 10:20:18;;;;;;;125.33;29.10;;;;;;;;;;4973646;28;20416;-65
2022/10/14 10:22:44;;;;;;;173.87;34.90;;;;;;;;;;4973028;28;20047;-66
2022/10/14 10:25:10;;;;;;;123.87;29.60;;;;;;;;;;4973593;28;20416;-66
2022/10/14 10:27:40;;;;;;;166.87;35.60;;;;;;;;;;4973568;28;20051;-65
2022/10/14 10:30:27;;;;;;;214.13;39.30;;;;;;;;;;4973237;28;20109;-66
2022/10/14 10:33:09;;;;;;;192.53;39.23;;;;;;;;;;4971326;28;20073;-66
2022/10/14 10:35:50;;;;;;;266.20;48.93;;;;;;;;;;4972435;28;20516;-66
2022/10/14 10:38:52;;;;;;;245.93;47.60;;;;;;;;;;4972640;28;20047;-66
2022/10/14 10:41:18;;;;;;;214.57;43.13;;;;;;;;;;4912548;29;20048;-66
2022/10/14 10:43:50;;;;;;;236.57;47.70;;;;;;;;;;4955332;28;20058;-65
2022/10/14 10:46:46;;;;;;;215.33;47.00;;;;;;;;;;4972646;28;20073;-65
2022/10/14 10:49:37;;;;;;;263.40;49.60;;;;;;;;;;4920235;28;20060;-66
2022/10/14 10:52:11;;;;;;;220.93;46.73;;;;;;;;;;4972145;28;20042;-66
2022/10/14 10:54:49;;;;;;;264.03;52.23;;;;;;;;;;4972209;28;20053;-66
2022/10/14 10:57:29;;;;;;;264.90;51.30;;;;;;;;;;4972575;28;20078;-66
2022/10/14 11:00:06;;;;;;;224.67;49.33;;;;;;;;;;4971096;28;20077;-65
2022/10/14 11:02:37;;;;;;;256.80;49.93;;;;;;;;;;4952226;29;20055;-66
2022/10/14 11:05:09;;;;;;;325.10;56.00;;;;;;;;;;4953965;28;20139;-66
2022/10/14 11:13:35;;;;;;;213.73;47.30;;;;;;;;;;4953659;29;20051;-65
2022/10/14 11:16:11;;;;;;;247.83;51.77;;;;;;;;;;4935732;29;20058;-66
2022/10/14 11:18:46;;;;;;;213.07;49.20;;;;;;;;;;4953766;28;20051;-65
2022/10/14 11:21:31;;;;;;;209.23;48.87;;;;;;;;;;4972739;28;20415;-65
2022/10/14 11:23:58;;;;;;;253.63;52.83;;;;;;;;;;4972223;28;20043;-65
2022/10/14 11:26:27;;;;;;;150.43;41.47;;;;;;;;;;4972269;28;20575;-65
2022/10/14 11:28:58;;;;;;;194.43;48.60;;;;;;;;;;4970881;28;20054;-66
2022/10/14 11:31:39;;;;;;;206.30;47.47;;;;;;;;;;4971483;28;20051;-65
2022/10/14 11:34:05;;;;;;;155.50;43.60;;;;;;;;;;4976196;28;20045;-65
2022/10/14 11:36:43;;;;;;;113.57;37.77;;;;;;;;;;4968024;28;20043;-65
2022/10/14 11:39:21;;;;;;;179.87;44.80;;;;;;;;;;4956531;28;20051;-65
2022/10/14 11:42:03;;;;;;;117.53;36.70;;;;;;;;;;4968161;28;20093;-65
2022/10/14 11:44:37;;;;;;;92.20;33.23;;;;;;;;;;4971204;28;20440;-65
2022/10/14 11:47:04;;;;;;;;;;;;;;;;;;4970302;28;20054;-65
2022/10/14 11:49:32;;;;;;;85.97;32.63;;;;;;;;;;4970316;28;20395;-64
2022/10/14 11:52:03;;;;;;;79.57;28.37;;;;;;;;;;4968224;28;20586;-65
2022/10/14 11:54:50;;;;;;;89.17;30.03;;;;;;;;;;4955286;28;20047;-65
2022/10/14 11:57:37;;;;;;;90.97;30.70;;;;;;;;;;4950883;28;20466;-65
2022/10/14 12:02:57;;;;;;;51.77;22.17;;;;;;;;;;4970760;28;20492;-65
2022/10/14 12:05:50;;;;;;;68.40;24.57;;;;;;;;;;4969344;28;20051;-65
2022/10/14 12:08:16;;;;;;;66.33;23.87;;;;;;;;;;4956477;28;20054;-65
2022/10/14 12:10:44;;;;;;;58.03;22.17;;;;;;;;;;4971754;28;20596;-65
2022/10/14 12:13:15;;;;;;;40.07;20.37;;;;;;;;;;4971766;28;20191;-65
2022/10/14 12:15:44;;;;;;;42.80;18.80;;;;;;;;;;4970795;28;20297;-65
2022/10/14 12:18:11;;;;;;;65.67;22.53;;;;;;;;;;4972083;28;20047;-65
2022/10/14 12:20:37;;;;;;;42.57;19.27;;;;;;;;;;4971828;28;20137;-65
2022/10/14 12:23:06;;;;;;;41.93;18.47;;;;;;;;;;4971702;28;20062;-65
2022/10/14 12:25:38;;;;;;;31.50;16.93;;;;;;;;;;4971434;28;20120;-65
2022/10/14 12:28:04;;;;;;;29.40;15.77;;;;;;;;;;4968676;28;20104;-65
2022/10/14 12:30:32;;;;;;;25.30;14.17;;;;;;;;;;4970759;28;20051;-65
2022/10/14 12:33:00;;;;;;;27.43;14.33;;;;;;;;;;4971152;28;20125;-65
2022/10/14 12:35:46;;;;;;;28.07;15.27;;;;;;;;;;4971275;28;20118;-65
2022/10/14 12:38:12;;;;;;;20.73;13.07;;;;;;;;;;4970720;28;20065;-65
2022/10/14 12:40:38;;;;;;;19.33;11.87;;;;;;;;;;4969494;28;20047;-64
2022/10/14 12:43:12;;;;;;;14.60;10.60;;;;;;;;;;4970783;28;20412;-65
2022/10/14 12:45:46;;;;;;;14.90;11.00;;;;;;;;;;4969324;28;20460;-65
2022/10/14 12:48:12;;;;;;;20.60;12.20;;;;;;;;;;4970420;28;20047;-65
2022/10/14 12:50:40;;;;;;;16.97;12.03;;;;;;;;;;4960678;28;20042;-65
2022/10/14 12:53:14;;;;;;;19.87;13.77;;;;;;;;;;4961062;28;20500;-64
2022/10/14 12:55:52;;;;;;;21.23;12.63;;;;;;;;;;4951537;29;20079;-64
2022/10/14 12:58:22;;;;;;;18.33;12.80;;;;;;;;;;4951978;28;20054;-64
2022/10/14 13:00:53;;;;;;;17.53;11.57;;;;;;;;;;4956974;28;20042;-64
2022/10/14 13:03:22;;;;;;;16.53;12.10;;;;;;;;;;4961923;28;20117;-64
2022/10/14 13:05:48;;;;;;;16.60;11.97;;;;;;;;;;4961815;28;20047;-64
2022/10/14 13:08:34;;;;;;;19.07;13.17;;;;;;;;;;4962522;28;20047;-65
2022/10/14 13:11:01;;;;;;;16.30;12.97;;;;;;;;;;4960412;28;20043;-65
2022/10/14 13:13:50;;;;;;;19.90;13.30;;;;;;;;;;4962026;28;20047;-65
2022/10/14 13:16:25;;;;;;;16.73;12.97;;;;;;;;;;4958998;28;20454;-65
2022/10/14 13:18:51;;;;;;;16.47;11.73;;;;;;;;;;4951545;29;20051;-65
2022/10/14 13:21:41;;;;;;;18.20;13.53;;;;;;;;;;4951752;29;20051;-65
2022/10/14 13:24:07;;;;;;;21.30;14.10;;;;;;;;;;4946152;29;20058;-65
2022/10/14 13:26:32;;;;;;;19.57;14.13;;;;;;;;;;4951099;29;20039;-65
2022/10/14 13:29:02;;;;;;;15.97;13.30;;;;;;;;;;4950791;29;20517;-65
2022/10/14 13:31:31;;;;;;;20.70;14.37;;;;;;;;;;4951415;29;20112;-65
2022/10/14 13:34:08;;;;;;;18.07;14.77;;;;;;;;;;4949817;29;20059;-65
2022/10/14 13:36:41;;;;;;;24.90;15.57;;;;;;;;;;4950963;28;20086;-65
2022/10/14 13:39:08;;;;;;;27.85;18.27;;;;;;;;;;4951129;28;20051;-65
2022/10/14 13:41:36;;;;;;;24.03;16.93;;;;;;;;;;4950250;29;20044;-65
2022/10/14 13:44:03;;;;;;;26.27;17.63;;;;;;;;;;4950845;28;20138;-65
2022/10/14 13:46:33;;;;;;;26.23;16.27;;;;;;;;;;4950491;29;20075;-66
2022/10/14 13:49:00;;;;;;;27.73;17.73;;;;;;;;;;4950612;29;20039;-65
2022/10/14 13:51:47;;;;;;;29.13;18.17;;;;;;;;;;4949716;29;20043;-65
2022/10/14 13:54:15;;;;;;;27.33;17.20;;;;;;;;;;4950776;29;20122;-65
2022/10/14 13:56:41;;;;;;;38.70;19.60;;;;;;;;;;4950980;29;20047;-65
2022/10/14 13:59:17;;;;;;;31.00;18.70;;;;;;;;;;4950731;29;20058;-65
2022/10/14 14:01:43;;;;;;;29.23;17.33;;;;;;;;;;4949913;29;20509;-65
2022/10/14 14:04:14;;;;;;;37.77;19.87;;;;;;;;;;4950325;29;20083;-65
2022/10/14 14:06:45;;;;;;;26.10;16.73;;;;;;;;;;4949638;29;20052;-65
2022/10/14 14:09:18;;;;;;;28.30;17.07;;;;;;;;;;4950017;29;20508;-65
2022/10/14 14:11:45;;;;;;;26.65;17.25;;;;;;;;;;4949086;29;20549;-65
2022/10/14 14:14:44;;;;;;;28.50;17.20;;;;;;;;;;4950194;29;20166;-65
2022/10/14 14:17:15;;;;;;;27.73;16.47;;;;;;;;;;4927459;29;20055;-65
2022/10/14 14:19:45;;;;;;;25.90;16.90;;;;;;;;;;4948400;29;20083;-65
2022/10/14 14:22:14;;;;;;;26.80;16.73;;;;;;;;;;4949811;29;20187;-65
2022/10/14 14:24:40;;;;;;;21.30;14.67;;;;;;;;;;4949851;29;20106;-65
2022/10/14 14:27:10;;;;;;;23.87;16.17;;;;;;;;;;4949703;29;20055;-65